sensor_id;sensor_type;location;lat;lon;timestamp;P1;durP1;ratioP1;P2;durP2;ratioP2
4305;SDS011;2166;49.926;8.608;2023-11-21T00:01:20;9.45;;;2.75;;
4305;SDS011;2166;49.926;8.608;2023-11-21T00:03:49;9.73;;;2.70;;
4305;SDS011;2166;49.926;8.608;2023-11-21T00:06:21;7.80;;;3.28;;
4305;SDS011;2166;49.926;8.608;2023-11-21T00:08:50;12.55;;;2.92;;
4305;SDS011;2166;49.926;8.608;2023-11-21T00:11:18;6.95;;;2.78;;
4305;SDS011;2166;49.926;8.608;2023-11-21T00:13:47;14.02;;;3.13;;
4305;SDS011;2166;49.926;8.608;2023-11-21T00:16:16;13.27;;;3.05;;
4305;SDS011;2166;49.926;8.608;2023-11-21T00:18:45;0.05;;;0.05;;
4305;SDS011;2166;49.926;8.608;2023-11-21T00:21:13;0.00;;;0.00;;
4305;SDS011;2166;49.926;8.608;2023-11-21T00:23:42;0.00;;;0.00;;
4305;SDS011;2166;49.926;8.608;2023-11-21T00:26:10;5.70;;;1.10;;
4305;SDS011;2166;49.926;8.608;2023-11-21T00:28:40;0.00;;;0.00;;
4305;SDS011;2166;49.926;8.608;2023-11-21T00:31:10;0.00;;;0.00;;
4305;SDS011;2166;49.926;8.608;2023-11-21T00:33:39;0.00;;;0.00;;
4305;SDS011;2166;49.926;8.608;2023-11-21T00:36:08;0.30;;;0.30;;
4305;SDS011;2166;49.926;8.608;2023-11-21T00:38:37;0.00;;;0.00;;
4305;SDS011;2166;49.926;8.608;2023-11-21T00:41:06;0.55;;;0.20;;
4305;SDS011;2166;49.926;8.608;2023-11-21T00:43:35;0.10;;;0.10;;
4305;SDS011;2166;49.926;8.608;2023-11-21T00:46:04;0.00;;;0.00;;
4305;SDS011;2166;49.926;8.608;2023-11-21T00:48:35;0.00;;;0.00;;
4305;SDS011;2166;49.926;8.608;2023-11-21T00:51:03;0.00;;;0.00;;
4305;SDS011;2166;49.926;8.608;2023-11-21T00:53:34;0.10;;;0.10;;
4305;SDS011;2166;49.926;8.608;2023-11-21T00:56:03;0.10;;;0.10;;
4305;SDS011;2166;49.926;8.608;2023-11-21T00:58:32;0.00;;;0.00;;
4305;SDS011;2166;49.926;8.608;2023-11-21T01:01:02;0.20;;;0.20;;
4305;SDS011;2166;49.926;8.608;2023-11-21T01:03:31;0.17;;;0.17;;
4305;SDS011;2166;49.926;8.608;2023-11-21T01:06:00;0.00;;;0.00;;
4305;SDS011;2166;49.926;8.608;2023-11-21T01:08:30;0.57;;;0.57;;
4305;SDS011;2166;49.926;8.608;2023-11-21T01:10:58;0.00;;;0.00;;
4305;SDS011;2166;49.926;8.608;2023-11-21T01:13:27;0.00;;;0.00;;
4305;SDS011;2166;49.926;8.608;2023-11-21T01:15:58;1.55;;;0.85;;
4305;SDS011;2166;49.926;8.608;2023-11-21T01:18:27;0.57;;;0.57;;
4305;SDS011;2166;49.926;8.608;2023-11-21T01:20:58;0.10;;;0.10;;
4305;SDS011;2166;49.926;8.608;2023-11-21T01:23:28;0.10;;;0.10;;
4305;SDS011;2166;49.926;8.608;2023-11-21T01:25:56;0.00;;;0.00;;
4305;SDS011;2166;49.926;8.608;2023-11-21T01:28:26;0.63;;;0.63;;
4305;SDS011;2166;49.926;8.608;2023-11-21T01:30:55;0.00;;;0.00;;
4305;SDS011;2166;49.926;8.608;2023-11-21T01:33:23;0.20;;;0.20;;
4305;SDS011;2166;49.926;8.608;2023-11-21T01:35:52;0.40;;;0.40;;
4305;SDS011;2166;49.926;8.608;2023-11-21T01:38:22;0.00;;;0.00;;
4305;SDS011;2166;49.926;8.608;2023-11-21T01:40:51;0.10;;;0.10;;
4305;SDS011;2166;49.926;8.608;2023-11-21T01:43:20;0.10;;;0.10;;
4305;SDS011;2166;49.926;8.608;2023-11-21T01:45:48;0.85;;;0.85;;
4305;SDS011;2166;49.926;8.608;2023-11-21T01:48:17;0.45;;;0.45;;
4305;SDS011;2166;49.926;8.608;2023-11-21T01:50:47;0.00;;;0.00;;
4305;SDS011;2166;49.926;8.608;2023-11-21T01:53:15;0.03;;;0.03;;
4305;SDS011;2166;49.926;8.608;2023-11-21T01:55:45;0.00;;;0.00;;
4305;SDS011;2166;49.926;8.608;2023-11-21T01:58:15;0.00;;;0.00;;
4305;SDS011;2166;49.926;8.608;2023-11-21T02:00:46;0.10;;;0.10;;
4305;SDS011;2166;49.926;8.608;2023-11-21T02:03:16;0.30;;;0.30;;
4305;SDS011;2166;49.926;8.608;2023-11-21T02:05:45;0.00;;;0.00;;
4305;SDS011;2166;49.926;8.608;2023-11-21T02:08:14;0.40;;;0.40;;
4305;SDS011;2166;49.926;8.608;2023-11-21T02:10:42;0.10;;;0.10;;
4305;SDS011;2166;49.926;8.608;2023-11-21T02:13:13;0.05;;;0.05;;
4305;SDS011;2166;49.926;8.608;2023-11-21T02:15:44;0.88;;;0.85;;
4305;SDS011;2166;49.926;8.608;2023-11-21T02:18:15;0.00;;;0.00;;
4305;SDS011;2166;49.926;8.608;2023-11-21T02:20:44;0.00;;;0.00;;
4305;SDS011;2166;49.926;8.608;2023-11-21T02:23:15;0.10;;;0.10;;
4305;SDS011;2166;49.926;8.608;2023-11-21T02:25:44;0.10;;;0.10;;
4305;SDS011;2166;49.926;8.608;2023-11-21T02:28:15;0.45;;;0.40;;
4305;SDS011;2166;49.926;8.608;2023-11-21T02:30:52;0.00;;;0.00;;
4305;SDS011;2166;49.926;8.608;2023-11-21T02:33:24;0.00;;;0.00;;
4305;SDS011;2166;49.926;8.608;2023-11-21T02:35:54;0.00;;;0.00;;
4305;SDS011;2166;49.926;8.608;2023-11-21T02:38:24;0.10;;;0.10;;
4305;SDS011;2166;49.926;8.608;2023-11-21T02:40:57;0.00;;;0.00;;
4305;SDS011;2166;49.926;8.608;2023-11-21T02:43:29;0.00;;;0.00;;
4305;SDS011;2166;49.926;8.608;2023-11-21T02:45:57;0.00;;;0.00;;
4305;SDS011;2166;49.926;8.608;2023-11-21T02:48:25;0.03;;;0.03;;
4305;SDS011;2166;49.926;8.608;2023-11-21T02:50:54;0.10;;;0.10;;
4305;SDS011;2166;49.926;8.608;2023-11-21T02:53:22;0.30;;;0.30;;
4305;SDS011;2166;49.926;8.608;2023-11-21T02:55:52;0.00;;;0.00;;
4305;SDS011;2166;49.926;8.608;2023-11-21T02:58:20;0.38;;;0.38;;
4305;SDS011;2166;49.926;8.608;2023-11-21T03:00:50;0.00;;;0.00;;
4305;SDS011;2166;49.926;8.608;2023-11-21T03:03:20;1.98;;;1.10;;
4305;SDS011;2166;49.926;8.608;2023-11-21T03:05:50;0.22;;;0.22;;
4305;SDS011;2166;49.926;8.608;2023-11-21T03:08:19;0.40;;;0.40;;
4305;SDS011;2166;49.926;8.608;2023-11-21T03:10:48;0.30;;;0.30;;
4305;SDS011;2166;49.926;8.608;2023-11-21T03:13:18;0.10;;;0.10;;
4305;SDS011;2166;49.926;8.608;2023-11-21T03:15:47;2.17;;;1.98;;
4305;SDS011;2166;49.926;8.608;2023-11-21T03:18:16;0.40;;;0.40;;
4305;SDS011;2166;49.926;8.608;2023-11-21T03:20:45;0.22;;;0.22;;
4305;SDS011;2166;49.926;8.608;2023-11-21T03:23:15;0.10;;;0.10;;
4305;SDS011;2166;49.926;8.608;2023-11-21T03:25:43;0.00;;;0.00;;
4305;SDS011;2166;49.926;8.608;2023-11-21T03:28:11;0.10;;;0.10;;
4305;SDS011;2166;49.926;8.608;2023-11-21T03:30:41;0.10;;;0.10;;
4305;SDS011;2166;49.926;8.608;2023-11-21T03:33:11;0.20;;;0.20;;
4305;SDS011;2166;49.926;8.608;2023-11-21T03:35:40;0.10;;;0.10;;
4305;SDS011;2166;49.926;8.608;2023-11-21T03:38:11;0.20;;;0.20;;
4305;SDS011;2166;49.926;8.608;2023-11-21T03:40:39;0.05;;;0.05;;
4305;SDS011;2166;49.926;8.608;2023-11-21T03:43:08;0.10;;;0.10;;
4305;SDS011;2166;49.926;8.608;2023-11-21T03:45:36;1.20;;;0.90;;
4305;SDS011;2166;49.926;8.608;2023-11-21T03:48:09;0.00;;;0.00;;
4305;SDS011;2166;49.926;8.608;2023-11-21T03:50:39;0.00;;;0.00;;
4305;SDS011;2166;49.926;8.608;2023-11-21T03:53:08;0.17;;;0.17;;
4305;SDS011;2166;49.926;8.608;2023-11-21T03:55:37;0.00;;;0.00;;
4305;SDS011;2166;49.926;8.608;2023-11-21T03:58:05;0.10;;;0.10;;
4305;SDS011;2166;49.926;8.608;2023-11-21T04:00:34;0.00;;;0.00;;
4305;SDS011;2166;49.926;8.608;2023-11-21T04:03:05;4.07;;;1.35;;
4305;SDS011;2166;49.926;8.608;2023-11-21T04:05:35;0.10;;;0.10;;
4305;SDS011;2166;49.926;8.608;2023-11-21T04:08:04;0.35;;;0.35;;
4305;SDS011;2166;49.926;8.608;2023-11-21T04:10:32;0.00;;;0.00;;
4305;SDS011;2166;49.926;8.608;2023-11-21T04:13:01;0.10;;;0.10;;
4305;SDS011;2166;49.926;8.608;2023-11-21T04:15:28;0.10;;;0.10;;
4305;SDS011;2166;49.926;8.608;2023-11-21T04:17:57;0.47;;;0.47;;
4305;SDS011;2166;49.926;8.608;2023-11-21T04:20:27;0.10;;;0.10;;
4305;SDS011;2166;49.926;8.608;2023-11-21T04:22:55;0.10;;;0.10;;
4305;SDS011;2166;49.926;8.608;2023-11-21T04:25:24;0.47;;;0.47;;
4305;SDS011;2166;49.926;8.608;2023-11-21T04:27:53;0.28;;;0.28;;
4305;SDS011;2166;49.926;8.608;2023-11-21T04:30:21;0.85;;;0.85;;
4305;SDS011;2166;49.926;8.608;2023-11-21T04:32:50;0.10;;;0.10;;
4305;SDS011;2166;49.926;8.608;2023-11-21T04:35:18;0.03;;;0.03;;
4305;SDS011;2166;49.926;8.608;2023-11-21T04:37:48;0.13;;;0.13;;
4305;SDS011;2166;49.926;8.608;2023-11-21T04:40:17;0.00;;;0.00;;
4305;SDS011;2166;49.926;8.608;2023-11-21T04:42:47;0.10;;;0.10;;
4305;SDS011;2166;49.926;8.608;2023-11-21T04:45:15;0.40;;;0.40;;
4305;SDS011;2166;49.926;8.608;2023-11-21T04:47:44;0.20;;;0.20;;
4305;SDS011;2166;49.926;8.608;2023-11-21T04:50:12;0.10;;;0.10;;
4305;SDS011;2166;49.926;8.608;2023-11-21T04:52:41;0.10;;;0.10;;
4305;SDS011;2166;49.926;8.608;2023-11-21T04:55:12;0.15;;;0.15;;
4305;SDS011;2166;49.926;8.608;2023-11-21T04:57:42;0.00;;;0.00;;
4305;SDS011;2166;49.926;8.608;2023-11-21T05:00:11;0.30;;;0.30;;
4305;SDS011;2166;49.926;8.608;2023-11-21T05:02:40;0.10;;;0.10;;
4305;SDS011;2166;49.926;8.608;2023-11-21T05:05:10;0.00;;;0.00;;
4305;SDS011;2166;49.926;8.608;2023-11-21T05:07:39;0.15;;;0.15;;
4305;SDS011;2166;49.926;8.608;2023-11-21T05:10:07;0.00;;;0.00;;
4305;SDS011;2166;49.926;8.608;2023-11-21T05:12:41;0.00;;;0.00;;
4305;SDS011;2166;49.926;8.608;2023-11-21T05:15:09;0.10;;;0.10;;
4305;SDS011;2166;49.926;8.608;2023-11-21T05:17:41;0.00;;;0.00;;
4305;SDS011;2166;49.926;8.608;2023-11-21T05:20:11;0.20;;;0.20;;
4305;SDS011;2166;49.926;8.608;2023-11-21T05:22:41;0.10;;;0.10;;
4305;SDS011;2166;49.926;8.608;2023-11-21T05:25:09;0.00;;;0.00;;
4305;SDS011;2166;49.926;8.608;2023-11-21T05:27:38;0.10;;;0.10;;
4305;SDS011;2166;49.926;8.608;2023-11-21T05:30:08;0.10;;;0.10;;
4305;SDS011;2166;49.926;8.608;2023-11-21T05:32:38;0.32;;;0.32;;
4305;SDS011;2166;49.926;8.608;2023-11-21T05:35:09;0.00;;;0.00;;
4305;SDS011;2166;49.926;8.608;2023-11-21T05:37:41;0.00;;;0.00;;
4305;SDS011;2166;49.926;8.608;2023-11-21T05:40:11;0.00;;;0.00;;
4305;SDS011;2166;49.926;8.608;2023-11-21T05:42:41;0.00;;;0.00;;
4305;SDS011;2166;49.926;8.608;2023-11-21T05:45:10;0.00;;;0.00;;
4305;SDS011;2166;49.926;8.608;2023-11-21T05:47:40;0.00;;;0.00;;
4305;SDS011;2166;49.926;8.608;2023-11-21T05:50:10;0.00;;;0.00;;
4305;SDS011;2166;49.926;8.608;2023-11-21T05:52:42;6.40;;;2.20;;
4305;SDS011;2166;49.926;8.608;2023-11-21T05:55:12;0.00;;;0.00;;
4305;SDS011;2166;49.926;8.608;2023-11-21T05:57:43;0.00;;;0.00;;
4305;SDS011;2166;49.926;8.608;2023-11-21T06:00:13;0.20;;;0.20;;
4305;SDS011;2166;49.926;8.608;2023-11-21T06:05:17;0.00;;;0.00;;
4305;SDS011;2166;49.926;8.608;2023-11-21T06:07:46;0.30;;;0.30;;
4305;SDS011;2166;49.926;8.608;2023-11-21T06:10:16;0.00;;;0.00;;
4305;SDS011;2166;49.926;8.608;2023-11-21T06:12:47;0.25;;;0.25;;
4305;SDS011;2166;49.926;8.608;2023-11-21T06:15:16;0.10;;;0.10;;
4305;SDS011;2166;49.926;8.608;2023-11-21T06:17:47;0.08;;;0.08;;
4305;SDS011;2166;49.926;8.608;2023-11-21T06:20:19;0.00;;;0.00;;
4305;SDS011;2166;49.926;8.608;2023-11-21T06:22:49;0.00;;;0.00;;
4305;SDS011;2166;49.926;8.608;2023-11-21T06:25:19;0.00;;;0.00;;
4305;SDS011;2166;49.926;8.608;2023-11-21T06:27:49;0.00;;;0.00;;
4305;SDS011;2166;49.926;8.608;2023-11-21T06:30:20;1.17;;;0.95;;
4305;SDS011;2166;49.926;8.608;2023-11-21T06:32:49;0.00;;;0.00;;
4305;SDS011;2166;49.926;8.608;2023-11-21T06:35:19;0.10;;;0.10;;
4305;SDS011;2166;49.926;8.608;2023-11-21T06:37:49;0.00;;;0.00;;
4305;SDS011;2166;49.926;8.608;2023-11-21T06:40:18;0.00;;;0.00;;
4305;SDS011;2166;49.926;8.608;2023-11-21T06:42:49;0.10;;;0.10;;
4305;SDS011;2166;49.926;8.608;2023-11-21T06:45:18;0.20;;;0.20;;
4305;SDS011;2166;49.926;8.608;2023-11-21T06:47:47;0.00;;;0.00;;
4305;SDS011;2166;49.926;8.608;2023-11-21T06:50:16;0.52;;;0.52;;
4305;SDS011;2166;49.926;8.608;2023-11-21T06:52:45;0.10;;;0.10;;
4305;SDS011;2166;49.926;8.608;2023-11-21T06:55:14;0.28;;;0.28;;
4305;SDS011;2166;49.926;8.608;2023-11-21T06:57:43;0.55;;;0.55;;
4305;SDS011;2166;49.926;8.608;2023-11-21T07:00:13;0.10;;;0.10;;
4305;SDS011;2166;49.926;8.608;2023-11-21T07:02:45;0.20;;;0.20;;
4305;SDS011;2166;49.926;8.608;2023-11-21T07:05:13;0.00;;;0.00;;
4305;SDS011;2166;49.926;8.608;2023-11-21T07:07:42;0.10;;;0.10;;
4305;SDS011;2166;49.926;8.608;2023-11-21T07:10:11;0.20;;;0.20;;
4305;SDS011;2166;49.926;8.608;2023-11-21T07:12:40;0.20;;;0.20;;
4305;SDS011;2166;49.926;8.608;2023-11-21T07:15:09;0.10;;;0.10;;
4305;SDS011;2166;49.926;8.608;2023-11-21T07:17:40;0.17;;;0.17;;
4305;SDS011;2166;49.926;8.608;2023-11-21T07:20:09;0.10;;;0.10;;
4305;SDS011;2166;49.926;8.608;2023-11-21T07:22:38;0.10;;;0.10;;
4305;SDS011;2166;49.926;8.608;2023-11-21T07:25:07;0.10;;;0.10;;
4305;SDS011;2166;49.926;8.608;2023-11-21T07:27:37;0.47;;;0.47;;
4305;SDS011;2166;49.926;8.608;2023-11-21T07:30:06;0.00;;;0.00;;
4305;SDS011;2166;49.926;8.608;2023-11-21T07:32:37;0.80;;;0.80;;
4305;SDS011;2166;49.926;8.608;2023-11-21T07:35:09;0.00;;;0.00;;
4305;SDS011;2166;49.926;8.608;2023-11-21T07:37:38;0.38;;;0.38;;
4305;SDS011;2166;49.926;8.608;2023-11-21T07:40:07;0.65;;;0.65;;
4305;SDS011;2166;49.926;8.608;2023-11-21T07:42:38;0.60;;;0.60;;
4305;SDS011;2166;49.926;8.608;2023-11-21T07:45:09;0.00;;;0.00;;
4305;SDS011;2166;49.926;8.608;2023-11-21T07:47:39;0.77;;;0.77;;
4305;SDS011;2166;49.926;8.608;2023-11-21T07:50:09;0.20;;;0.20;;
4305;SDS011;2166;49.926;8.608;2023-11-21T07:52:40;0.60;;;0.60;;
4305;SDS011;2166;49.926;8.608;2023-11-21T07:55:08;0.00;;;0.00;;
4305;SDS011;2166;49.926;8.608;2023-11-21T07:57:37;1.10;;;1.00;;
4305;SDS011;2166;49.926;8.608;2023-11-21T08:00:06;0.20;;;0.20;;
4305;SDS011;2166;49.926;8.608;2023-11-21T08:02:38;0.10;;;0.10;;
4305;SDS011;2166;49.926;8.608;2023-11-21T08:05:11;0.20;;;0.20;;
4305;SDS011;2166;49.926;8.608;2023-11-21T08:07:50;1.65;;;1.55;;
4305;SDS011;2166;49.926;8.608;2023-11-21T08:10:19;0.28;;;0.28;;
4305;SDS011;2166;49.926;8.608;2023-11-21T08:12:49;1.15;;;1.10;;
4305;SDS011;2166;49.926;8.608;2023-11-21T08:15:18;0.20;;;0.20;;
4305;SDS011;2166;49.926;8.608;2023-11-21T08:17:46;0.82;;;0.82;;
4305;SDS011;2166;49.926;8.608;2023-11-21T08:20:16;0.75;;;0.75;;
4305;SDS011;2166;49.926;8.608;2023-11-21T08:22:45;0.00;;;0.00;;
4305;SDS011;2166;49.926;8.608;2023-11-21T08:25:15;0.25;;;0.25;;
4305;SDS011;2166;49.926;8.608;2023-11-21T08:27:47;0.38;;;0.38;;
4305;SDS011;2166;49.926;8.608;2023-11-21T08:30:16;0.35;;;0.35;;
4305;SDS011;2166;49.926;8.608;2023-11-21T08:32:46;0.20;;;0.20;;
4305;SDS011;2166;49.926;8.608;2023-11-21T08:35:14;0.10;;;0.10;;
4305;SDS011;2166;49.926;8.608;2023-11-21T08:37:45;0.00;;;0.00;;
4305;SDS011;2166;49.926;8.608;2023-11-21T08:40:14;0.10;;;0.10;;
4305;SDS011;2166;49.926;8.608;2023-11-21T08:42:43;0.95;;;0.95;;
4305;SDS011;2166;49.926;8.608;2023-11-21T08:45:13;0.00;;;0.00;;
4305;SDS011;2166;49.926;8.608;2023-11-21T08:47:44;0.77;;;0.77;;
4305;SDS011;2166;49.926;8.608;2023-11-21T08:50:13;0.60;;;0.60;;
4305;SDS011;2166;49.926;8.608;2023-11-21T08:52:47;0.15;;;0.15;;
4305;SDS011;2166;49.926;8.608;2023-11-21T08:55:16;0.00;;;0.00;;
4305;SDS011;2166;49.926;8.608;2023-11-21T08:57:46;0.20;;;0.20;;
4305;SDS011;2166;49.926;8.608;2023-11-21T09:00:15;0.10;;;0.10;;
4305;SDS011;2166;49.926;8.608;2023-11-21T09:02:45;0.30;;;0.30;;
4305;SDS011;2166;49.926;8.608;2023-11-21T09:05:14;0.30;;;0.30;;
4305;SDS011;2166;49.926;8.608;2023-11-21T09:07:46;0.30;;;0.30;;
4305;SDS011;2166;49.926;8.608;2023-11-21T09:10:16;0.10;;;0.10;;
4305;SDS011;2166;49.926;8.608;2023-11-21T09:12:44;0.10;;;0.10;;
4305;SDS011;2166;49.926;8.608;2023-11-21T09:15:14;0.32;;;0.32;;
4305;SDS011;2166;49.926;8.608;2023-11-21T09:17:42;0.00;;;0.00;;
4305;SDS011;2166;49.926;8.608;2023-11-21T09:20:11;0.20;;;0.20;;
4305;SDS011;2166;49.926;8.608;2023-11-21T09:22:41;0.00;;;0.00;;
4305;SDS011;2166;49.926;8.608;2023-11-21T09:25:13;0.32;;;0.32;;
4305;SDS011;2166;49.926;8.608;2023-11-21T09:27:42;0.20;;;0.20;;
4305;SDS011;2166;49.926;8.608;2023-11-21T09:30:12;0.20;;;0.20;;
4305;SDS011;2166;49.926;8.608;2023-11-21T09:32:42;0.93;;;0.93;;
4305;SDS011;2166;49.926;8.608;2023-11-21T09:35:12;0.55;;;0.55;;
4305;SDS011;2166;49.926;8.608;2023-11-21T09:37:44;0.00;;;0.00;;
4305;SDS011;2166;49.926;8.608;2023-11-21T09:40:17;0.22;;;0.22;;
4305;SDS011;2166;49.926;8.608;2023-11-21T09:42:53;0.00;;;0.00;;
4305;SDS011;2166;49.926;8.608;2023-11-21T09:45:27;0.25;;;0.25;;
4305;SDS011;2166;49.926;8.608;2023-11-21T09:47:57;1.00;;;1.00;;
4305;SDS011;2166;49.926;8.608;2023-11-21T09:50:26;0.95;;;0.95;;
4305;SDS011;2166;49.926;8.608;2023-11-21T09:52:57;0.03;;;0.03;;
4305;SDS011;2166;49.926;8.608;2023-11-21T09:55:34;0.20;;;0.20;;
4305;SDS011;2166;49.926;8.608;2023-11-21T09:58:03;1.05;;;1.00;;
4305;SDS011;2166;49.926;8.608;2023-11-21T10:00:34;0.10;;;0.10;;
4305;SDS011;2166;49.926;8.608;2023-11-21T10:03:02;0.20;;;0.20;;
4305;SDS011;2166;49.926;8.608;2023-11-21T10:05:31;0.17;;;0.17;;
4305;SDS011;2166;49.926;8.608;2023-11-21T10:08:01;0.10;;;0.10;;
4305;SDS011;2166;49.926;8.608;2023-11-21T10:10:34;0.10;;;0.10;;
4305;SDS011;2166;49.926;8.608;2023-11-21T10:13:04;0.35;;;0.35;;
4305;SDS011;2166;49.926;8.608;2023-11-21T10:15:40;0.00;;;0.00;;
4305;SDS011;2166;49.926;8.608;2023-11-21T10:18:15;0.03;;;0.03;;
4305;SDS011;2166;49.926;8.608;2023-11-21T10:20:45;0.35;;;0.35;;
4305;SDS011;2166;49.926;8.608;2023-11-21T10:25:51;0.10;;;0.10;;
4305;SDS011;2166;49.926;8.608;2023-11-21T10:28:23;1.95;;;0.98;;
4305;SDS011;2166;49.926;8.608;2023-11-21T10:30:54;0.45;;;0.45;;
4305;SDS011;2166;49.926;8.608;2023-11-21T10:33:26;0.55;;;0.55;;
4305;SDS011;2166;49.926;8.608;2023-11-21T10:35:56;0.45;;;0.45;;
4305;SDS011;2166;49.926;8.608;2023-11-21T10:38:24;0.50;;;0.50;;
4305;SDS011;2166;49.926;8.608;2023-11-21T10:40:55;0.15;;;0.15;;
4305;SDS011;2166;49.926;8.608;2023-11-21T10:43:24;0.85;;;0.80;;
4305;SDS011;2166;49.926;8.608;2023-11-21T10:45:56;0.00;;;0.00;;
4305;SDS011;2166;49.926;8.608;2023-11-21T10:48:28;0.20;;;0.20;;
4305;SDS011;2166;49.926;8.608;2023-11-21T10:50:56;0.00;;;0.00;;
4305;SDS011;2166;49.926;8.608;2023-11-21T10:53:28;0.08;;;0.08;;
4305;SDS011;2166;49.926;8.608;2023-11-21T10:56:02;0.38;;;0.38;;
4305;SDS011;2166;49.926;8.608;2023-11-21T10:58:35;0.00;;;0.00;;
4305;SDS011;2166;49.926;8.608;2023-11-21T11:01:05;0.55;;;0.55;;
4305;SDS011;2166;49.926;8.608;2023-11-21T11:03:38;0.00;;;0.00;;
4305;SDS011;2166;49.926;8.608;2023-11-21T11:06:07;0.00;;;0.00;;
4305;SDS011;2166;49.926;8.608;2023-11-21T11:08:38;0.10;;;0.10;;
4305;SDS011;2166;49.926;8.608;2023-11-21T11:11:09;0.70;;;0.47;;
4305;SDS011;2166;49.926;8.608;2023-11-21T11:13:39;0.00;;;0.00;;
4305;SDS011;2166;49.926;8.608;2023-11-21T11:16:12;0.13;;;0.08;;
4305;SDS011;2166;49.926;8.608;2023-11-21T11:18:44;0.20;;;0.20;;
4305;SDS011;2166;49.926;8.608;2023-11-21T11:21:18;0.22;;;0.22;;
4305;SDS011;2166;49.926;8.608;2023-11-21T11:23:57;0.00;;;0.00;;
4305;SDS011;2166;49.926;8.608;2023-11-21T11:26:46;0.08;;;0.03;;
4305;SDS011;2166;49.926;8.608;2023-11-21T11:29:23;0.00;;;0.00;;
4305;SDS011;2166;49.926;8.608;2023-11-21T11:32:04;0.00;;;0.00;;
4305;SDS011;2166;49.926;8.608;2023-11-21T11:34:41;0.00;;;0.00;;
4305;SDS011;2166;49.926;8.608;2023-11-21T11:37:16;0.00;;;0.00;;
4305;SDS011;2166;49.926;8.608;2023-11-21T11:39:46;0.00;;;0.00;;
4305;SDS011;2166;49.926;8.608;2023-11-21T11:42:17;1.17;;;0.98;;
4305;SDS011;2166;49.926;8.608;2023-11-21T11:44:47;0.00;;;0.00;;
4305;SDS011;2166;49.926;8.608;2023-11-21T11:47:20;3.47;;;0.52;;
4305;SDS011;2166;49.926;8.608;2023-11-21T11:49:56;0.00;;;0.00;;
4305;SDS011;2166;49.926;8.608;2023-11-21T11:52:36;2.08;;;0.55;;
4305;SDS011;2166;49.926;8.608;2023-11-21T11:55:08;7.47;;;2.53;;
4305;SDS011;2166;49.926;8.608;2023-11-21T11:57:46;7.07;;;2.65;;
4305;SDS011;2166;49.926;8.608;2023-11-21T12:00:18;6.65;;;3.25;;
4305;SDS011;2166;49.926;8.608;2023-11-21T12:02:48;6.68;;;3.05;;
4305;SDS011;2166;49.926;8.608;2023-11-21T12:05:20;8.30;;;3.05;;
4305;SDS011;2166;49.926;8.608;2023-11-21T12:07:50;7.05;;;3.17;;
4305;SDS011;2166;49.926;8.608;2023-11-21T12:10:22;6.95;;;3.35;;
4305;SDS011;2166;49.926;8.608;2023-11-21T12:12:54;7.75;;;3.28;;
4305;SDS011;2166;49.926;8.608;2023-11-21T12:15:25;4.07;;;2.90;;
4305;SDS011;2166;49.926;8.608;2023-11-21T12:17:56;13.13;;;4.05;;
4305;SDS011;2166;49.926;8.608;2023-11-21T12:20:25;6.88;;;3.85;;
4305;SDS011;2166;49.926;8.608;2023-11-21T12:22:55;6.22;;;3.22;;
4305;SDS011;2166;49.926;8.608;2023-11-21T12:25:26;9.00;;;3.25;;
4305;SDS011;2166;49.926;8.608;2023-11-21T12:27:58;6.78;;;3.58;;
4305;SDS011;2166;49.926;8.608;2023-11-21T12:30:30;7.13;;;3.80;;
4305;SDS011;2166;49.926;8.608;2023-11-21T12:32:59;12.35;;;4.30;;
4305;SDS011;2166;49.926;8.608;2023-11-21T12:35:30;9.55;;;3.72;;
4305;SDS011;2166;49.926;8.608;2023-11-21T12:38:01;6.15;;;3.67;;
4305;SDS011;2166;49.926;8.608;2023-11-21T12:40:30;8.10;;;3.53;;
4305;SDS011;2166;49.926;8.608;2023-11-21T12:43:01;8.65;;;4.68;;
4305;SDS011;2166;49.926;8.608;2023-11-21T12:45:31;11.52;;;4.72;;
4305;SDS011;2166;49.926;8.608;2023-11-21T12:48:01;7.05;;;4.35;;
4305;SDS011;2166;49.926;8.608;2023-11-21T12:50:35;8.10;;;4.25;;
4305;SDS011;2166;49.926;8.608;2023-11-21T12:53:06;6.65;;;5.07;;
4305;SDS011;2166;49.926;8.608;2023-11-21T12:55:36;9.25;;;5.30;;
4305;SDS011;2166;49.926;8.608;2023-11-21T12:58:07;8.88;;;4.68;;
4305;SDS011;2166;49.926;8.608;2023-11-21T13:00:39;7.68;;;4.15;;
4305;SDS011;2166;49.926;8.608;2023-11-21T13:03:10;5.95;;;3.80;;
4305;SDS011;2166;49.926;8.608;2023-11-21T13:05:45;7.38;;;3.45;;
4305;SDS011;2166;49.926;8.608;2023-11-21T13:08:18;8.73;;;4.07;;
4305;SDS011;2166;49.926;8.608;2023-11-21T13:10:50;6.22;;;3.65;;
4305;SDS011;2166;49.926;8.608;2023-11-21T13:13:23;7.03;;;3.95;;
4305;SDS011;2166;49.926;8.608;2023-11-21T13:15:55;9.65;;;4.43;;
4305;SDS011;2166;49.926;8.608;2023-11-21T13:18:28;7.18;;;3.97;;
4305;SDS011;2166;49.926;8.608;2023-11-21T13:21:01;10.27;;;4.35;;
4305;SDS011;2166;49.926;8.608;2023-11-21T13:23:36;14.00;;;4.43;;
4305;SDS011;2166;49.926;8.608;2023-11-21T13:26:05;7.43;;;4.07;;
4305;SDS011;2166;49.926;8.608;2023-11-21T13:28:39;10.63;;;4.43;;
4305;SDS011;2166;49.926;8.608;2023-11-21T13:31:13;10.52;;;4.60;;
4305;SDS011;2166;49.926;8.608;2023-11-21T13:33:53;10.10;;;4.60;;
4305;SDS011;2166;49.926;8.608;2023-11-21T13:36:25;5.93;;;3.70;;
4305;SDS011;2166;49.926;8.608;2023-11-21T13:38:58;13.18;;;4.57;;
4305;SDS011;2166;49.926;8.608;2023-11-21T13:41:31;9.75;;;3.97;;
4305;SDS011;2166;49.926;8.608;2023-11-21T13:44:01;10.00;;;4.50;;
4305;SDS011;2166;49.926;8.608;2023-11-21T13:46:42;8.20;;;4.05;;
4305;SDS011;2166;49.926;8.608;2023-11-21T13:49:13;14.75;;;4.60;;
4305;SDS011;2166;49.926;8.608;2023-11-21T13:51:43;11.63;;;4.05;;
4305;SDS011;2166;49.926;8.608;2023-11-21T13:54:14;8.55;;;3.58;;
4305;SDS011;2166;49.926;8.608;2023-11-21T13:56:43;7.97;;;3.70;;
4305;SDS011;2166;49.926;8.608;2023-11-21T13:59:19;9.55;;;3.50;;
4305;SDS011;2166;49.926;8.608;2023-11-21T14:01:51;8.57;;;3.42;;
4305;SDS011;2166;49.926;8.608;2023-11-21T14:04:24;6.78;;;3.50;;
4305;SDS011;2166;49.926;8.608;2023-11-21T14:07:13;5.38;;;3.03;;
4305;SDS011;2166;49.926;8.608;2023-11-21T14:09:53;10.30;;;3.28;;
4305;SDS011;2166;49.926;8.608;2023-11-21T14:12:22;6.38;;;3.40;;
4305;SDS011;2166;49.926;8.608;2023-11-21T14:14:53;9.85;;;3.10;;
4305;SDS011;2166;49.926;8.608;2023-11-21T14:17:23;5.47;;;3.50;;
4305;SDS011;2166;49.926;8.608;2023-11-21T14:19:54;7.45;;;3.38;;
4305;SDS011;2166;49.926;8.608;2023-11-21T14:22:23;4.82;;;3.28;;
4305;SDS011;2166;49.926;8.608;2023-11-21T14:24:52;8.48;;;3.92;;
4305;SDS011;2166;49.926;8.608;2023-11-21T14:27:25;6.75;;;3.58;;
4305;SDS011;2166;49.926;8.608;2023-11-21T14:29:55;5.93;;;3.13;;
4305;SDS011;2166;49.926;8.608;2023-11-21T14:32:24;6.13;;;3.67;;
4305;SDS011;2166;49.926;8.608;2023-11-21T14:34:53;11.45;;;4.30;;
4305;SDS011;2166;49.926;8.608;2023-11-21T14:37:22;10.70;;;4.25;;
4305;SDS011;2166;49.926;8.608;2023-11-21T14:39:50;6.97;;;3.78;;
4305;SDS011;2166;49.926;8.608;2023-11-21T14:42:19;8.55;;;3.80;;
4305;SDS011;2166;49.926;8.608;2023-11-21T14:44:52;9.07;;;4.05;;
4305;SDS011;2166;49.926;8.608;2023-11-21T14:47:27;11.07;;;5.20;;
4305;SDS011;2166;49.926;8.608;2023-11-21T14:49:57;13.13;;;5.40;;
4305;SDS011;2166;49.926;8.608;2023-11-21T14:52:33;10.77;;;4.55;;
4305;SDS011;2166;49.926;8.608;2023-11-21T14:55:02;13.95;;;4.60;;
4305;SDS011;2166;49.926;8.608;2023-11-21T14:57:53;10.88;;;4.88;;
4305;SDS011;2166;49.926;8.608;2023-11-21T15:00:20;13.23;;;6.22;;
4305;SDS011;2166;49.926;8.608;2023-11-21T15:03:14;11.30;;;4.57;;
4305;SDS011;2166;49.926;8.608;2023-11-21T15:06:01;9.30;;;5.07;;
4305;SDS011;2166;49.926;8.608;2023-11-21T15:08:49;12.27;;;5.97;;
4305;SDS011;2166;49.926;8.608;2023-11-21T15:11:22;12.25;;;5.75;;
4305;SDS011;2166;49.926;8.608;2023-11-21T15:13:57;10.05;;;5.07;;
4305;SDS011;2166;49.926;8.608;2023-11-21T15:16:27;14.90;;;5.40;;
4305;SDS011;2166;49.926;8.608;2023-11-21T15:18:58;9.55;;;4.50;;
4305;SDS011;2166;49.926;8.608;2023-11-21T15:21:26;7.57;;;4.97;;
4305;SDS011;2166;49.926;8.608;2023-11-21T15:23:55;7.38;;;4.40;;
4305;SDS011;2166;49.926;8.608;2023-11-21T15:26:23;9.57;;;3.95;;
4305;SDS011;2166;49.926;8.608;2023-11-21T15:28:56;8.02;;;3.88;;
4305;SDS011;2166;49.926;8.608;2023-11-21T15:31:24;6.43;;;2.75;;
4305;SDS011;2166;49.926;8.608;2023-11-21T15:33:53;8.15;;;3.85;;
4305;SDS011;2166;49.926;8.608;2023-11-21T15:36:28;10.35;;;4.30;;
4305;SDS011;2166;49.926;8.608;2023-11-21T15:38:56;9.75;;;4.10;;
4305;SDS011;2166;49.926;8.608;2023-11-21T15:41:25;13.55;;;5.50;;